• Join FlightAware (Why Join?)
  • Login
  • US Flag 
10:32AM EDT


 

Airport Tracker/Info


-or-


 

Live Flight TrackerFlight Track Log ✈ UAL4550 ✈ 22-Apr-2013 ✈ KIAH - KMLU

Flight Track Log - Related Links

Times and Time Zones

All times are in EDT time to prevent confusion due to time zone crossing. See the UAL4550 flight status page for this flight to view local times or setup timezone preferences in your user account.

Time Position Orientation Groundspeed Altitude Reporting Facility
EDT Latitude Longitude Course Direction KTS MPH feet Rate Location/Type
08:20PM 29.9792 -95.3053 36° Northeast 159 183 800  Level Houston Center
08:20PM 29.9839 -95.2914 69° East 175 201 1,700 2,520 Climbing Houston Center
08:21PM 30.0433 -95.2678 19° North 244 281 4,000 1,620 Climbing Houston Center
08:22PM 30.1125 -95.2278 27° Northeast 283 326 5,100 1,080 Climbing Houston Center
08:23PM 30.1781 -95.1794 33° Northeast 281 323 6,300 2,100 Climbing Houston Center
08:25PM 30.2425 -95.1297 34° Northeast 279 321 9,500 2,100 Climbing Houston Center
08:26PM 30.4780 -94.9405 36° Northeast  Level FlightAware Approximate
08:26PM 30.3169 -95.0739 33° Northeast 328 377 10,700  Level Houston Center
08:27PM 30.4033 -95.0072 34° Northeast 371 427 12,400 1,800 Climbing Houston Center
08:28PM 30.4972 -94.9342 34° Northeast 375 432 14,500 1,980 Climbing Houston Center
08:29PM 30.5822 -94.8639 35° Northeast 378 435 16,600 1,980 Climbing Houston Center
08:30PM 30.6644 -94.7483 50° Northeast 389 448 18,700 1,800 Climbing Houston Center
08:31PM 30.7342 -94.6486 51° Northeast 396 456 20,400 1,560 Climbing Houston Center
08:32PM 30.8067 -94.5464 50° Northeast 407 468 21,900 1,200 Climbing Houston Center
08:33PM 30.8814 -94.4392 51° Northeast 424 488 23,000 480 Climbing Houston Center
08:34PM 30.9606 -94.3272 50° Northeast 445 512 23,000  Level Houston Center
08:35PM 31.0386 -94.2128 51° Northeast 452 520 23,000  Level Houston Center
08:36PM 31.1369 -94.0739 50° Northeast 463 533 23,000  Level Houston Center
08:37PM 31.2164 -93.9600 51° Northeast 457 526 23,000  Level Houston Center
08:38PM 31.2964 -93.8442 51° Northeast 459 528 23,000  Level Houston Center
08:39PM 31.3747 -93.7294 51° Northeast 455 524 23,000  Level Houston Center
08:40PM 31.4536 -93.6150 51° Northeast 453 521 23,000  Level Houston Center
08:41PM 31.5425 -93.4853 51° Northeast 453 521 23,000  Level Houston Center
08:42PM 31.6217 -93.3692 51° Northeast 453 521 23,000  Level Houston Center
08:43PM 31.7006 -93.2533 51° Northeast 453 521 23,000 -120 Level Houston Center
08:44PM 31.7794 -93.1364 52° Northeast 454 522 22,800 -1,080 Descending Houston Center
08:45PM 31.8569 -93.0214 52° Northeast 448 516 20,800 -2,160 Descending Houston Center
08:46PM 31.9283 -92.9161 51° Northeast 414 476 18,400 -2,400 Descending Houston Center
08:47PM 31.9997 -92.8103 51° Northeast 411 473 15,900 -2,400 Descending Houston Center
08:48PM 32.0811 -92.6867 52° Northeast 396 456 13,500 -1,440 Descending Houston Center
08:49PM 32.1494 -92.5864 51° Northeast 392 451 13,000 -840 Descending Houston Center
08:50PM 32.1942 -92.4894 61° Northeast 337 388 11,900 -1,740 Descending Houston Center
08:51PM 32.2361 -92.4006 61° Northeast 315 362 9,500 -2,340 Descending Houston Center